Time;durP1;ratioP1;P1;durP2;ratioP2;P2;SDS_P1;SDS_P2;PMS_P1;PMS_P2;Temp;Humidity;BMP_temperature;BMP_pressure;BME280_temperature;BME280_humidity;BME280_pressure;Samples;Min_cycle;Max_cycle;Signal;HPM_P1;HPM_P2
2022/12/25 00:00:28;;;;;;;49.15;16.10;;;6.30;99.90;;;;;;6210577;23;20442;-76
2022/12/25 00:02:54;;;;;;;49.25;16.55;;;6.30;99.90;;;;;;6182901;23;20009;-76
2022/12/25 00:05:19;;;;;;;54.83;17.40;;;6.20;99.90;;;;;;6183028;23;20000;-76
2022/12/25 00:07:45;;;;;;;52.35;16.20;;;6.20;99.90;;;;;;6183954;23;20005;-76
2022/12/25 00:10:11;;;;;;;46.10;15.40;;;6.20;99.90;;;;;;6208144;23;20009;-76
2022/12/25 00:12:37;;;;;;;56.03;16.25;;;6.20;99.90;;;;;;6184918;23;20040;-76
2022/12/25 00:15:03;;;;;;;44.97;14.63;;;6.30;99.90;;;;;;6185012;23;20498;-76
2022/12/25 00:17:28;;;;;;;43.08;14.38;;;6.30;99.90;;;;;;6182713;23;20031;-76
2022/12/25 00:19:54;;;;;;;37.83;14.32;;;6.30;99.90;;;;;;6183595;23;20004;-76
2022/12/25 00:22:19;;;;;;;37.78;13.23;;;6.30;99.90;;;;;;6183670;23;20004;-76
2022/12/25 00:24:48;;;;;;;42.28;13.27;;;6.40;99.90;;;;;;6181130;23;20008;-76
2022/12/25 00:27:14;;;;;;;43.63;13.52;;;6.30;99.90;;;;;;6184011;23;20370;-76
2022/12/25 00:29:40;;;;;;;36.78;13.15;;;6.30;99.90;;;;;;6182745;23;20015;-77
2022/12/25 00:32:06;;;;;;;41.25;12.35;;;6.30;99.90;;;;;;6210090;23;20005;-77
2022/12/25 00:34:32;;;;;;;35.92;12.90;;;6.40;99.90;;;;;;6183509;23;20008;-76
2022/12/25 00:36:57;;;;;;;39.22;11.75;;;6.40;99.90;;;;;;6210367;23;20008;-76
2022/12/25 00:39:23;;;;;;;44.63;11.93;;;6.40;99.90;;;;;;6183084;23;20005;-76
2022/12/25 00:44:39;;;;;;;34.85;12.77;;;6.40;99.90;;;;;;6210439;23;20023;-76
2022/12/25 00:47:07;;;;;;;;;;;6.40;99.90;;;;;;6184016;23;20458;-76
2022/12/25 00:49:35;;;;;;;35.20;11.98;;;6.40;99.90;;;;;;6183186;23;19900;-76
2022/12/25 00:52:01;;;;;;;33.17;11.55;;;6.40;99.90;;;;;;6183823;23;20442;-77
2022/12/25 00:54:29;;;;;;;43.60;11.38;;;6.40;99.90;;;;;;6182791;23;20087;-76
2022/12/25 00:56:57;;;;;;;36.67;10.00;;;6.40;99.90;;;;;;6183568;23;20388;-76
2022/12/25 00:59:23;;;;;;;37.15;11.43;;;6.40;99.90;;;;;;6182987;23;20416;-76
2022/12/25 01:01:52;;;;;;;36.47;11.27;;;6.40;99.90;;;;;;6183451;23;20126;-77
2022/12/25 01:04:20;;;;;;;37.83;10.95;;;6.40;99.90;;;;;;6183805;23;20001;-77
2022/12/25 01:06:49;;;;;;;36.67;11.48;;;6.40;99.90;;;;;;6210665;23;20008;-77
2022/12/25 01:11:58;;;;;;;32.17;11.07;;;6.40;99.90;;;;;;6210491;23;20011;-77
2022/12/25 01:14:23;;;;;;;27.23;10.82;;;6.40;99.90;;;;;;6183833;23;20004;-78
2022/12/25 01:16:49;;;;;;;36.30;10.38;;;6.30;99.90;;;;;;6210303;23;20008;-78
2022/12/25 01:19:15;;;;;;;40.05;11.30;;;6.40;99.90;;;;;;6182864;23;20466;-77
2022/12/25 01:21:41;;;;;;;53.00;13.13;;;6.40;99.90;;;;;;6183746;23;20000;-78
2022/12/25 01:24:07;;;;;;;33.92;9.85;;;6.40;99.90;;;;;;6209797;23;20005;-78
2022/12/25 01:26:32;;;;;;;35.13;9.45;;;6.40;99.90;;;;;;6183145;23;20382;-78
2022/12/25 01:28:58;;;;;;;33.30;9.23;;;6.50;99.90;;;;;;6210506;23;20026;-77
2022/12/25 01:31:24;;;;;;;34.90;9.48;;;6.50;99.90;;;;;;6183165;23;20004;-77
2022/12/25 01:33:49;;;;;;;36.65;9.65;;;6.60;99.90;;;;;;6210456;23;20008;-77
2022/12/25 01:36:21;;;;;;;33.13;9.63;;;6.60;99.90;;;;;;6210305;23;20001;-77
2022/12/25 01:38:47;;;;;;;29.35;9.43;;;6.60;99.90;;;;;;6209881;23;20336;-77
2022/12/25 01:41:16;;;;;;;34.47;9.80;;;6.60;99.90;;;;;;6183098;23;20042;-77
2022/12/25 01:44:00;;;;;;;34.85;10.25;;;6.60;99.90;;;;;;6210350;23;20054;-77
2022/12/25 01:46:25;;;;;;;35.17;9.57;;;6.60;99.90;;;;;;6210560;23;20001;-83
2022/12/25 01:48:53;;;;;;;35.22;10.02;;;6.50;99.90;;;;;;6210587;23;20360;-83
2022/12/25 01:51:29;;;;;;;36.38;10.85;;;6.50;99.90;;;;;;6183658;23;20499;-83
2022/12/25 01:53:58;;;;;;;33.00;9.60;;;6.50;99.90;;;;;;6210804;23;20051;-83
2022/12/25 01:56:25;;;;;;;37.33;10.02;;;6.50;99.90;;;;;;6210480;23;20431;-84
2022/12/25 01:58:52;;;;;;;32.95;9.75;;;6.60;99.90;;;;;;6210832;23;20008;-84
2022/12/25 02:01:17;;;;;;;38.70;8.95;;;6.60;99.90;;;;;;6212278;23;20032;-84
2022/12/25 02:03:43;;;;;;;36.75;10.77;;;6.50;99.90;;;;;;6212949;23;20008;-84
2022/12/25 02:06:08;;;;;;;42.40;11.15;;;6.50;99.90;;;;;;6186006;23;20042;-84
2022/12/25 02:08:34;;;;;;;32.70;9.15;;;6.60;99.90;;;;;;6212244;23;20162;-84
2022/12/25 02:11:00;;;;;;;28.90;9.38;;;6.50;99.90;;;;;;6185287;23;20021;-84
2022/12/25 02:13:25;;;;;;;39.38;10.23;;;6.60;99.90;;;;;;6212892;23;20027;-84
2022/12/25 02:16:09;;;;;;;39.25;11.57;;;6.50;99.90;;;;;;6185674;23;20487;-84
2022/12/25 02:18:55;;;;;;;51.63;10.10;;;6.60;99.90;;;;;;6212236;23;20547;-84
2022/12/25 02:21:35;;;;;;;36.75;9.90;;;6.60;99.90;;;;;;6184952;23;20221;-84
2022/12/25 02:24:25;;;;;;;36.92;9.40;;;6.60;99.90;;;;;;6185546;23;20431;-83
2022/12/25 02:27:42;;;;;;;38.95;10.23;;;6.70;99.90;;;;;;6221122;23;20005;-84
2022/12/25 02:30:09;;;;;;;27.33;8.70;;;6.70;99.90;;;;;;6112773;23;20011;-83
2022/12/25 02:35:52;;;;;;;35.05;10.82;;;6.70;99.90;;;;;;6222887;23;20387;-84
2022/12/25 02:38:27;;;;;;;27.75;9.75;;;6.70;99.90;;;;;;6222839;23;20007;-84
2022/12/25 02:40:58;;;;;;;34.50;10.43;;;6.70;99.90;;;;;;6192975;23;20004;-82
2022/12/25 03:07:13;;;;;;;27.23;8.40;;;6.30;99.90;;;;;;6213627;23;20011;-82
2022/12/25 03:13:07;;;;;;;28.05;8.52;;;6.00;99.90;;;;;;6210540;23;20070;-82
2022/12/25 03:18:24;;;;;;;20.95;8.88;;;5.70;99.90;;;;;;6214781;23;20015;-81
2022/12/25 03:26:53;;;;;;;23.17;8.65;;;5.50;99.90;;;;;;6107995;23;20006;-81
2022/12/25 03:26:54;;;;;;;18.30;7.40;;;5.40;99.90;;;;;;6210855;23;20011;-82
2022/12/25 03:32:40;;;;;;;22.83;7.63;;;5.30;99.90;;;;;;6211666;23;20016;-81
2022/12/25 03:35:22;;;;;;;18.88;8.32;;;5.20;99.90;;;;;;6184528;23;20004;-81
2022/12/25 04:37:16;;;;;;;26.38;9.23;;;4.70;99.90;;;;;;6210751;23;20055;-77
2022/12/25 04:39:42;;;;;;;22.70;8.50;;;4.70;99.90;;;;;;6183892;23;20008;-77
2022/12/25 04:42:08;;;;;;;26.95;9.30;;;4.70;99.90;;;;;;6183716;23;20008;-77
2022/12/25 04:44:34;;;;;;;16.98;8.10;;;4.70;99.90;;;;;;6183739;23;20007;-77
2022/12/25 04:47:01;;;;;;;23.05;9.05;;;4.70;99.90;;;;;;6183548;23;20004;-77
2022/12/25 04:49:29;;;;;;;23.25;9.35;;;4.60;99.90;;;;;;6209846;23;20079;-77
2022/12/25 04:51:58;;;;;;;25.05;9.15;;;4.60;99.90;;;;;;6210463;23;20080;-77
2022/12/25 04:54:24;;;;;;;29.13;9.48;;;4.60;99.90;;;;;;6210471;23;20012;-77
2022/12/25 04:56:50;;;;;;;23.58;8.93;;;4.70;99.90;;;;;;6210489;23;20012;-77
2022/12/25 04:59:15;;;;;;;22.52;8.82;;;4.60;99.90;;;;;;6182337;23;20032;-77
2022/12/25 05:01:41;;;;;;;23.55;9.57;;;4.60;99.90;;;;;;6183598;23;20349;-78
2022/12/25 05:04:07;;;;;;;23.92;9.02;;;4.50;99.90;;;;;;6209858;23;20024;-78
2022/12/25 05:06:33;;;;;;;18.73;8.98;;;4.40;99.90;;;;;;6209629;23;20378;-78
2022/12/25 05:08:58;;;;;;;17.35;8.82;;;4.40;99.90;;;;;;6183647;23;20015;-78
2022/12/25 05:11:24;;;;;;;19.80;8.45;;;4.40;99.90;;;;;;6210119;23;20012;-78
2022/12/25 05:13:50;;;;;;;20.85;8.90;;;4.50;99.90;;;;;;6183742;23;20012;-78
2022/12/25 05:16:18;;;;;;;24.25;8.73;;;4.50;99.90;;;;;;6183502;23;20454;-77
2022/12/25 05:18:46;;;;;;;16.35;6.97;;;4.40;99.90;;;;;;6183626;23;20004;-77
2022/12/25 05:21:13;;;;;;;18.63;8.25;;;4.40;99.90;;;;;;6208601;23;20004;-77
2022/12/25 05:23:47;;;;;;;20.98;8.60;;;4.50;99.90;;;;;;6210484;23;20450;-78
2022/12/25 05:26:14;;;;;;;18.65;8.80;;;4.50;99.90;;;;;;6183584;23;20091;-78
2022/12/25 05:28:39;;;;;;;21.50;8.50;;;4.50;99.90;;;;;;6210601;23;20001;-77
2022/12/25 05:31:05;;;;;;;22.15;8.70;;;4.50;99.90;;;;;;6209811;23;20019;-77
2022/12/25 05:33:31;;;;;;;21.58;9.30;;;4.60;99.90;;;;;;6209727;23;20335;-77
2022/12/25 05:35:57;;;;;;;24.88;8.90;;;4.60;99.90;;;;;;6184609;23;20000;-81
2022/12/25 05:38:22;;;;;;;17.67;8.07;;;4.60;99.90;;;;;;6185586;23;19993;-81
2022/12/25 05:40:50;;;;;;;19.98;8.40;;;4.60;99.90;;;;;;6185001;23;20084;-81
2022/12/25 05:43:18;;;;;;;19.33;9.73;;;4.70;99.90;;;;;;6212243;23;20004;-81
2022/12/25 05:45:43;;;;;;;27.73;9.25;;;4.70;99.90;;;;;;6211980;23;20001;-81
2022/12/25 05:48:09;;;;;;;18.13;8.85;;;4.70;99.90;;;;;;6212098;23;20075;-78
2022/12/25 05:50:38;;;;;;;24.77;10.05;;;4.80;99.90;;;;;;6184507;23;20005;-77
2022/12/25 05:53:08;;;;;;;22.27;9.93;;;4.80;99.90;;;;;;6185125;23;20440;-77
2022/12/25 05:55:39;;;;;;;26.02;9.63;;;4.80;99.90;;;;;;6185044;23;20383;-77
2022/12/25 05:58:06;;;;;;;33.30;11.30;;;4.90;99.90;;;;;;6185513;23;20000;-77
2022/12/25 06:00:32;;;;;;;21.00;9.27;;;4.90;99.90;;;;;;6184658;23;20131;-76
2022/12/25 06:02:58;;;;;;;30.00;10.23;;;4.90;99.90;;;;;;6185118;23;20008;-76
2022/12/25 06:05:24;;;;;;;22.55;9.95;;;5.00;99.90;;;;;;6211731;23;20076;-76
2022/12/25 06:07:49;;;;;;;18.88;9.48;;;5.00;99.90;;;;;;6211820;23;20008;-77
2022/12/25 06:10:15;;;;;;;19.25;8.95;;;5.00;99.90;;;;;;6183135;23;20008;-76
2022/12/25 06:12:40;;;;;;;22.40;9.43;;;5.00;99.90;;;;;;6211733;23;19996;-81
2022/12/25 06:15:07;;;;;;;23.17;9.18;;;5.00;99.90;;;;;;6184871;23;20039;-82
2022/12/25 06:17:32;;;;;;;17.92;8.88;;;5.10;99.90;;;;;;6211774;23;20031;-82
2022/12/25 06:19:58;;;;;;;23.90;9.23;;;5.10;99.90;;;;;;6210346;23;20050;-82
2022/12/25 06:22:31;;;;;;;17.83;8.60;;;5.10;99.90;;;;;;6184669;23;20325;-82
2022/12/25 06:24:57;;;;;;;20.63;7.90;;;5.10;99.90;;;;;;6211939;23;20001;-82
2022/12/25 06:27:22;;;;;;;17.83;9.00;;;5.10;99.90;;;;;;6212080;23;20444;-83
2022/12/25 06:29:48;;;;;;;20.35;8.32;;;5.20;99.90;;;;;;6184463;23;20000;-81
2022/12/25 06:32:14;;;;;;;19.50;8.43;;;5.10;99.90;;;;;;6211532;23;20009;-82
2022/12/25 06:34:40;;;;;;;21.63;9.20;;;5.20;99.90;;;;;;6211718;23;20051;-85
2022/12/25 06:37:05;;;;;;;21.63;8.65;;;5.20;99.90;;;;;;6185403;23;20005;-83
2022/12/25 06:39:31;;;;;;;21.10;8.52;;;5.20;99.90;;;;;;6211887;23;20004;-83
2022/12/25 06:41:57;;;;;;;28.83;9.63;;;5.30;99.90;;;;;;6185118;23;20005;-82
2022/12/25 06:44:22;;;;;;;19.95;8.45;;;5.30;99.90;;;;;;6212164;23;20001;-82
2022/12/25 06:46:48;;;;;;;26.98;8.57;;;5.40;99.90;;;;;;6211938;23;20012;-80
2022/12/25 06:49:13;;;;;;;24.35;8.18;;;5.40;99.90;;;;;;6184537;23;20070;-84
2022/12/25 06:51:39;;;;;;;21.90;7.63;;;5.50;99.90;;;;;;6215526;23;20036;-84
2022/12/25 06:54:05;;;;;;;25.63;8.70;;;5.60;99.90;;;;;;6193374;23;20004;-85
2022/12/25 06:56:32;;;;;;;20.25;7.50;;;5.60;99.90;;;;;;6191786;23;20000;-84
2022/12/25 06:59:00;;;;;;;19.35;8.00;;;5.60;99.90;;;;;;6219652;23;20012;-84
2022/12/25 07:01:29;;;;;;;28.63;8.32;;;5.60;99.90;;;;;;6189268;23;20005;-83
2022/12/25 07:04:01;;;;;;;21.35;7.85;;;5.70;99.90;;;;;;6184373;23;20102;-82
2022/12/25 07:06:27;;;;;;;25.10;8.30;;;5.70;99.90;;;;;;6184394;23;20444;-83
2022/12/25 07:08:52;;;;;;;22.90;7.93;;;5.70;99.90;;;;;;6185026;23;20022;-82
2022/12/25 07:11:19;;;;;;;21.42;8.23;;;5.80;99.90;;;;;;6183924;23;20005;-82
2022/12/25 07:13:44;;;;;;;21.42;7.35;;;5.80;99.90;;;;;;6211003;23;20026;-82
2022/12/25 07:16:11;;;;;;;27.25;8.10;;;5.80;99.90;;;;;;6185528;23;20423;-82
2022/12/25 07:18:37;;;;;;;21.85;7.78;;;6.00;99.90;;;;;;6184969;23;20005;-83
2022/12/25 07:21:15;;;;;;;25.50;7.18;;;6.10;99.90;;;;;;6183939;23;20044;-82
2022/12/25 07:23:42;;;;;;;24.33;7.20;;;6.20;99.90;;;;;;6211400;23;20084;-82
2022/12/25 07:26:09;;;;;;;21.63;6.47;;;6.20;99.90;;;;;;6184765;23;20011;-82
2022/12/25 07:28:35;;;;;;;22.48;6.72;;;6.30;99.90;;;;;;6184152;23;19997;-82
2022/12/25 07:31:06;;;;;;;20.33;6.47;;;6.30;99.90;;;;;;6210073;23;20024;-81
2022/12/25 07:33:32;;;;;;;42.83;8.20;;;6.40;99.90;;;;;;6211074;23;19997;-82
2022/12/25 07:35:59;;;;;;;18.38;6.50;;;6.30;99.90;;;;;;6184148;23;20467;-82
2022/12/25 07:38:25;;;;;;;18.77;6.50;;;6.30;99.90;;;;;;6184444;23;20432;-82
2022/12/25 07:40:51;;;;;;;12.05;6.30;;;6.30;99.90;;;;;;6183726;23;20001;-77
2022/12/25 07:43:18;;;;;;;22.38;6.68;;;6.30;99.90;;;;;;6184208;23;20004;-77
2022/12/25 07:45:44;;;;;;;16.25;6.13;;;6.30;99.90;;;;;;6184153;23;20001;-77
2022/12/25 07:48:10;;;;;;;14.57;5.32;;;6.30;99.90;;;;;;6184453;23;20058;-77
2022/12/25 07:50:35;;;;;;;11.38;5.32;;;6.20;99.90;;;;;;6183393;23;20063;-82
2022/12/25 07:53:01;;;;;;;19.77;6.15;;;6.20;99.90;;;;;;6211030;23;20281;-81
2022/12/25 07:55:26;;;;;;;16.00;5.32;;;6.20;99.90;;;;;;6210622;23;20036;-77
2022/12/25 07:57:52;;;;;;;15.68;5.75;;;6.10;99.90;;;;;;6210634;23;20001;-77
2022/12/25 08:00:18;;;;;;;11.65;5.40;;;6.10;99.90;;;;;;6183554;23;20392;-77
2022/12/25 08:02:43;;;;;;;13.15;6.07;;;6.10;99.90;;;;;;6183943;23;20001;-78
2022/12/25 08:05:09;;;;;;;13.40;6.40;;;6.10;99.90;;;;;;6183516;23;20020;-77
2022/12/25 08:07:34;;;;;;;17.85;6.35;;;6.10;99.90;;;;;;6183953;23;20401;-78
2022/12/25 08:10:01;;;;;;;13.23;5.82;;;6.10;99.90;;;;;;6209979;23;20021;-78
2022/12/25 08:12:27;;;;;;;12.02;5.57;;;6.10;99.90;;;;;;6189598;23;20005;-77
2022/12/25 08:14:52;;;;;;;13.10;6.32;;;6.10;99.90;;;;;;6187371;23;20015;-76
2022/12/25 08:17:18;;;;;;;10.40;5.65;;;6.10;99.90;;;;;;6183609;23;20004;-77
2022/12/25 08:19:43;;;;;;;16.42;6.20;;;6.10;99.90;;;;;;6183529;23;20509;-77
2022/12/25 08:22:09;;;;;;;11.98;7.00;;;6.20;99.90;;;;;;6189163;23;20438;-78
2022/12/25 08:24:34;;;;;;;17.40;6.50;;;6.20;99.90;;;;;;6188581;23;20000;-78
2022/12/25 08:27:00;;;;;;;25.08;8.25;;;6.30;99.90;;;;;;6216233;23;20229;-75
2022/12/25 08:29:27;;;;;;;20.17;6.75;;;6.40;99.90;;;;;;6187768;23;20214;-78
2022/12/25 08:31:53;;;;;;;22.70;6.70;;;6.50;99.90;;;;;;6188600;23;20347;-77
2022/12/25 08:34:20;;;;;;;19.08;6.45;;;6.60;99.90;;;;;;6211856;23;20015;-77
2022/12/25 08:36:45;;;;;;;20.52;6.93;;;6.70;99.90;;;;;;6183729;23;20008;-77
2022/12/25 08:39:11;;;;;;;18.35;6.57;;;6.70;99.90;;;;;;6183933;23;20470;-78
2022/12/25 08:41:36;;;;;;;17.25;5.93;;;6.80;99.90;;;;;;6207887;23;20005;-78
2022/12/25 08:44:03;;;;;;;16.02;5.75;;;6.80;99.90;;;;;;6184891;23;20013;-76
2022/12/25 08:46:28;;;;;;;20.77;5.60;;;6.90;99.90;;;;;;6210384;23;19997;-78
2022/12/25 08:48:55;;;;;;;17.42;5.68;;;7.00;99.90;;;;;;6183933;23;20455;-77
2022/12/25 08:51:22;;;;;;;14.65;5.22;;;7.10;99.90;;;;;;6183403;23;20027;-78
2022/12/25 08:53:50;;;;;;;15.85;5.32;;;7.20;99.90;;;;;;6187043;23;20004;-77
2022/12/25 08:56:17;;;;;;;17.13;5.85;;;7.30;99.90;;;;;;6185478;23;20088;-77
2022/12/25 08:58:43;;;;;;;16.50;5.30;;;7.50;99.90;;;;;;6184359;23;20040;-78
2022/12/25 09:01:09;;;;;;;21.13;6.15;;;7.50;99.90;;;;;;6210174;23;20344;-78
2022/12/25 09:03:35;;;;;;;15.35;5.53;;;7.60;99.90;;;;;;6208418;23;20012;-77
2022/12/25 09:06:06;;;;;;;14.52;5.10;;;7.60;99.90;;;;;;6183750;23;20001;-77
2022/12/25 09:08:32;;;;;;;16.75;5.63;;;7.60;99.90;;;;;;6178456;23;20148;-77
2022/12/25 09:11:19;;;;;;;12.18;5.55;;;7.60;99.90;;;;;;6183275;23;20032;-77
2022/12/25 09:13:46;;;;;;;10.55;4.55;;;7.60;99.90;;;;;;6190845;23;20032;-77
2022/12/25 09:16:15;;;;;;;25.80;6.60;;;7.60;99.90;;;;;;6189196;23;20028;-78
2022/12/25 09:18:43;;;;;;;15.05;5.18;;;7.70;99.90;;;;;;6190028;23;20013;-79
2022/12/25 09:21:11;;;;;;;18.67;5.78;;;7.70;99.90;;;;;;6220086;23;20000;-79
2022/12/25 09:23:40;;;;;;;17.05;5.25;;;7.70;99.90;;;;;;6191719;23;20517;-78
2022/12/25 09:26:09;;;;;;;11.18;5.10;;;7.70;99.90;;;;;;6186872;23;20046;-77
2022/12/25 09:28:34;;;;;;;8.77;4.50;;;7.70;99.90;;;;;;6186020;23;19997;-78
2022/12/25 09:31:00;;;;;;;13.60;4.82;;;7.80;99.90;;;;;;6188497;23;20079;-78
2022/12/25 09:33:28;;;;;;;15.48;5.35;;;7.90;99.90;;;;;;6189278;23;20084;-78
2022/12/25 09:35:58;;;;;;;17.50;5.75;;;8.00;99.90;;;;;;6214515;23;20028;-77
2022/12/25 09:38:25;;;;;;;12.03;4.50;;;8.00;99.90;;;;;;6184690;23;20009;-78
2022/12/25 09:41:15;;;;;;;19.55;4.63;;;8.00;99.90;;;;;;6185113;23;20275;-78
2022/12/25 09:43:45;;;;;;;;;;;8.10;99.90;;;;;;6212417;23;20031;-78
2022/12/25 09:46:21;;;;;;;11.98;4.95;;;8.10;99.90;;;;;;6189358;23;19942;-78
2022/12/25 09:48:57;;;;;;;15.55;5.35;;;8.20;99.90;;;;;;6190677;23;20347;-78
2022/12/25 09:51:27;;;;;;;19.23;6.20;;;8.10;99.90;;;;;;6188634;23;20058;-78
2022/12/25 09:54:00;;;;;;;12.27;5.88;;;8.20;99.90;;;;;;6192030;23;20020;-78
2022/12/25 09:56:26;;;;;;;20.35;6.00;;;8.20;99.90;;;;;;6191302;23;20001;-78
2022/12/25 09:58:53;;;;;;;18.40;5.82;;;8.30;99.90;;;;;;6190396;23;20027;-79
2022/12/25 10:01:18;;;;;;;29.58;6.28;;;8.30;99.90;;;;;;6192573;23;20007;-80
2022/12/25 10:04:06;;;;;;;20.02;5.93;;;8.40;99.90;;;;;;6216905;23;19996;-78
2022/12/25 10:06:39;;;;;;;15.75;5.78;;;8.40;99.90;;;;;;6190768;23;19993;-78
2022/12/25 10:09:25;;;;;;;23.63;5.95;;;8.40;99.90;;;;;;6219631;23;20337;-78
2022/12/25 10:12:08;;;;;;;19.27;6.55;;;8.30;99.90;;;;;;6190887;23;20094;-78
2022/12/25 10:15:09;;;;;;;19.83;5.88;;;8.30;99.90;;;;;;6219588;23;20009;-78
2022/12/25 10:17:57;;;;;;;17.20;5.68;;;8.40;99.90;;;;;;6194434;23;20019;-78
2022/12/25 10:20:47;;;;;;;19.67;5.25;;;8.50;99.90;;;;;;6195293;23;20024;-77
2022/12/25 10:23:17;;;;;;;15.18;5.63;;;8.50;99.90;;;;;;6197430;23;20036;-78
2022/12/25 10:25:44;;;;;;;23.75;6.35;;;8.50;99.90;;;;;;6193567;23;20080;-77
2022/12/25 10:28:18;;;;;;;16.50;5.90;;;8.50;99.90;;;;;;6192959;23;20011;-78
2022/12/25 10:30:44;;;;;;;18.33;5.53;;;8.40;99.90;;;;;;6195613;23;19996;-78
2022/12/25 10:33:13;;;;;;;18.90;5.38;;;8.40;99.90;;;;;;6191989;23;20012;-78
2022/12/25 10:35:39;;;;;;;26.25;5.80;;;8.50;99.90;;;;;;6195425;23;20004;-77
2022/12/25 10:38:13;;;;;;;16.50;6.25;;;8.50;99.90;;;;;;6196071;23;20005;-76
2022/12/25 10:40:54;;;;;;;19.00;6.47;;;8.50;99.90;;;;;;6219537;23;20004;-79
2022/12/25 10:43:36;;;;;;;17.88;6.97;;;8.50;99.90;;;;;;6194800;23;20040;-78
2022/12/25 10:46:10;;;;;;;15.98;6.78;;;8.50;99.90;;;;;;6191227;23;20072;-78
2022/12/25 10:48:52;;;;;;;19.00;6.55;;;8.50;99.90;;;;;;6189976;23;20005;-79
2022/12/25 10:51:28;;;;;;;18.08;6.38;;;8.50;99.90;;;;;;6220735;23;20001;-78
2022/12/25 10:53:54;;;;;;;21.23;6.45;;;8.50;99.90;;;;;;6194639;23;20007;-77
2022/12/25 10:56:20;;;;;;;15.73;6.38;;;8.40;99.90;;;;;;6195126;23;20009;-77
2022/12/25 10:58:45;;;;;;;19.60;6.45;;;8.50;99.90;;;;;;6196526;23;20001;-77
2022/12/25 11:01:20;;;;;;;15.82;7.07;;;8.50;99.90;;;;;;6218379;23;20007;-77
2022/12/25 11:03:55;;;;;;;12.77;5.40;;;8.50;99.90;;;;;;6219821;23;20036;-76
2022/12/25 11:06:27;;;;;;;25.60;6.82;;;8.50;99.90;;;;;;6186966;23;20009;-77
2022/12/25 11:09:01;;;;;;;15.73;7.22;;;8.60;99.90;;;;;;6212571;23;20104;-76
2022/12/25 11:11:37;;;;;;;20.30;7.55;;;8.60;99.90;;;;;;6199122;23;20075;-76
2022/12/25 11:14:02;;;;;;;22.80;7.72;;;8.80;99.90;;;;;;6198536;23;20055;-78
2022/12/25 11:16:35;;;;;;;12.50;6.18;;;8.90;99.90;;;;;;6194814;23;20004;-78
2022/12/25 11:19:01;;;;;;;15.98;6.10;;;9.00;99.90;;;;;;6195042;23;20008;-76
2022/12/25 11:21:30;;;;;;;17.48;6.95;;;9.00;99.90;;;;;;6216714;23;20344;-76
2022/12/25 11:23:57;;;;;;;13.27;6.22;;;9.10;99.90;;;;;;6188124;23;20001;-75
2022/12/25 11:26:27;;;;;;;16.30;6.28;;;9.10;99.90;;;;;;6188375;23;20039;-76
2022/12/25 11:28:57;;;;;;;15.40;5.63;;;9.00;99.90;;;;;;6185814;23;20336;-77
2022/12/25 11:31:43;;;;;;;14.57;6.63;;;9.00;99.90;;;;;;6183149;23;20152;-77
2022/12/25 11:34:30;;;;;;;16.13;7.28;;;8.90;99.90;;;;;;6183997;23;20343;-77
2022/12/25 11:36:58;;;;;;;18.85;6.32;;;8.90;99.90;;;;;;6209211;23;20000;-77
2022/12/25 11:39:30;;;;;;;10.73;5.65;;;8.90;99.90;;;;;;6184214;23;20340;-77
2022/12/25 11:42:21;;;;;;;11.88;6.07;;;8.80;99.90;;;;;;6209013;23;20009;-77
2022/12/25 11:45:10;;;;;;;12.57;6.25;;;8.70;99.90;;;;;;6184241;23;20083;-77
2022/12/25 11:47:54;;;;;;;16.92;7.13;;;8.70;99.90;;;;;;6184529;23;20000;-77
2022/12/25 11:50:34;;;;;;;14.05;5.95;;;8.70;99.90;;;;;;6181679;23;20139;-78
2022/12/25 11:53:07;;;;;;;15.03;5.80;;;8.70;99.90;;;;;;6188702;23;20348;-76
2022/12/25 11:55:53;;;;;;;15.73;6.47;;;8.70;99.90;;;;;;6216245;23;20339;-77
2022/12/25 11:58:24;;;;;;;14.43;6.65;;;8.80;99.90;;;;;;6190720;23;20008;-77
2022/12/25 12:00:54;;;;;;;15.88;6.13;;;8.80;99.90;;;;;;6218350;23;20163;-77
2022/12/25 12:03:38;;;;;;;15.65;6.22;;;8.90;99.90;;;;;;6183100;23;20031;-77
2022/12/25 12:06:22;;;;;;;17.75;6.10;;;9.00;99.90;;;;;;6221032;23;20004;-77
2022/12/25 12:08:54;;;;;;;19.58;7.10;;;9.00;99.90;;;;;;6195109;23;20004;-77
2022/12/25 12:11:32;;;;;;;14.98;6.85;;;9.10;99.90;;;;;;6194375;23;20039;-75
2022/12/25 12:14:24;;;;;;;19.00;6.47;;;9.10;99.90;;;;;;6196072;23;20003;-78
2022/12/25 12:16:49;;;;;;;19.08;7.25;;;9.20;99.90;;;;;;6194944;23;20005;-78
2022/12/25 12:19:27;;;;;;;12.88;6.32;;;9.20;99.90;;;;;;6222531;23;20000;-78
2022/12/25 12:21:56;;;;;;;24.60;7.68;;;9.20;99.90;;;;;;6221882;23;20004;-77
2022/12/25 12:24:24;;;;;;;15.38;6.45;;;9.20;99.90;;;;;;6196000;23;20065;-77
2022/12/25 12:27:05;;;;;;;15.35;5.97;;;9.20;99.90;;;;;;6214407;23;20076;-77
2022/12/25 12:29:38;;;;;;;17.67;6.68;;;9.20;99.90;;;;;;6209408;23;20359;-83
2022/12/25 12:32:19;;;;;;;15.88;7.43;;;9.20;99.90;;;;;;6181130;23;20091;-82
2022/12/25 12:34:50;;;;;;;16.77;7.03;;;9.20;99.90;;;;;;6210011;23;20008;-80
2022/12/25 12:37:25;;;;;;;16.75;6.57;;;9.20;99.90;;;;;;6210120;23;20048;-83
2022/12/25 12:39:53;;;;;;;20.48;6.10;;;9.20;99.90;;;;;;6183294;23;20079;-82
2022/12/25 12:42:26;;;;;;;16.67;7.05;;;9.20;99.90;;;;;;6183594;23;20008;-85
2022/12/25 12:44:55;;;;;;;11.30;6.10;;;9.20;99.90;;;;;;6210666;23;20365;-85
2022/12/25 12:47:35;;;;;;;18.85;6.68;;;9.20;99.90;;;;;;6210529;23;20366;-78
2022/12/25 12:50:01;;;;;;;15.77;6.65;;;9.20;99.90;;;;;;6183254;23;19997;-78
2022/12/25 12:52:33;;;;;;;12.00;6.07;;;9.20;99.90;;;;;;6210611;23;20000;-78
2022/12/25 12:55:06;;;;;;;15.52;7.07;;;9.10;99.90;;;;;;6210745;23;20511;-78
2022/12/25 12:57:43;;;;;;;22.13;7.03;;;9.10;99.90;;;;;;6184172;23;20008;-78
2022/12/25 13:00:20;;;;;;;12.40;6.47;;;9.10;99.90;;;;;;6210054;23;20348;-77
2022/12/25 13:03:05;;;;;;;21.05;7.70;;;9.10;99.90;;;;;;6183422;23;20008;-79
2022/12/25 13:05:53;;;;;;;20.50;7.05;;;9.10;99.90;;;;;;6210570;23;20011;-78
2022/12/25 13:08:37;;;;;;;20.15;6.70;;;9.20;99.90;;;;;;6183520;23;20351;-78
2022/12/25 13:11:15;;;;;;;16.92;6.63;;;9.20;99.90;;;;;;6182608;23;20349;-78
2022/12/25 13:13:46;;;;;;;21.23;7.65;;;9.10;99.90;;;;;;6183562;23;20116;-79
2022/12/25 13:16:38;;;;;;;17.55;6.90;;;9.10;99.90;;;;;;6183285;23;20015;-76
2022/12/25 13:19:07;;;;;;;17.38;6.97;;;9.10;99.90;;;;;;6183590;23;20005;-76
2022/12/25 13:21:34;;;;;;;16.92;7.15;;;9.10;99.90;;;;;;6183548;23;20083;-76
2022/12/25 13:24:18;;;;;;;14.82;7.05;;;9.20;99.90;;;;;;6210027;23;20028;-76
2022/12/25 13:26:44;;;;;;;16.02;6.68;;;9.20;99.90;;;;;;6183891;23;19997;-76
2022/12/25 13:29:29;;;;;;;19.00;7.72;;;9.20;99.90;;;;;;6182776;23;20011;-76
2022/12/25 13:31:59;;;;;;;17.55;6.82;;;9.20;99.90;;;;;;6210358;23;20004;-76
2022/12/25 13:34:35;;;;;;;15.47;6.87;;;9.10;99.90;;;;;;6210307;23;20459;-76
2022/12/25 13:37:07;;;;;;;16.13;7.22;;;9.10;99.90;;;;;;6183291;23;20270;-76
2022/12/25 13:39:35;;;;;;;17.92;7.22;;;9.10;99.90;;;;;;6182992;23;20008;-76
2022/12/25 13:42:10;;;;;;;13.60;6.75;;;9.10;99.90;;;;;;6183044;23;20043;-76
2022/12/25 13:44:41;;;;;;;16.25;7.43;;;9.10;99.90;;;;;;6183509;23;20004;-76
2022/12/25 13:47:19;;;;;;;17.77;7.13;;;9.10;99.90;;;;;;6209954;23;20051;-76
2022/12/25 13:49:46;;;;;;;13.13;7.05;;;9.10;99.90;;;;;;6209543;23;20058;-76
2022/12/25 13:52:15;;;;;;;11.52;6.13;;;9.00;99.90;;;;;;6183174;23;20034;-76
2022/12/25 13:54:58;;;;;;;14.85;6.95;;;8.90;99.90;;;;;;6183070;23;20012;-76
2022/12/25 13:57:28;;;;;;;16.23;6.32;;;8.90;99.90;;;;;;6211907;23;20001;-76
2022/12/25 13:59:54;;;;;;;17.27;7.28;;;8.90;99.90;;;;;;6211520;23;20004;-76
2022/12/25 14:02:29;;;;;;;23.98;7.50;;;8.90;99.90;;;;;;6184957;23;20008;-76
2022/12/25 14:04:55;;;;;;;13.43;6.70;;;8.90;99.90;;;;;;6211668;23;20005;-76
2022/12/25 14:07:25;;;;;;;21.50;7.07;;;8.90;99.90;;;;;;6184932;23;20526;-76
2022/12/25 14:10:00;;;;;;;19.38;7.85;;;8.90;99.90;;;;;;6184385;23;20008;-76
2022/12/25 14:12:28;;;;;;;18.27;7.28;;;8.90;99.90;;;;;;6212025;23;20065;-76
2022/12/25 14:14:55;;;;;;;13.65;6.72;;;8.90;99.90;;;;;;6211778;23;20455;-75
2022/12/25 14:17:21;;;;;;;17.75;6.70;;;8.90;99.90;;;;;;6211913;23;20005;-76
2022/12/25 14:19:56;;;;;;;19.40;6.88;;;8.90;99.90;;;;;;6211221;23;20013;-75
2022/12/25 14:22:23;;;;;;;14.38;6.38;;;8.90;99.90;;;;;;6185059;23;20012;-75
2022/12/25 14:24:49;;;;;;;11.40;6.13;;;8.90;99.90;;;;;;6184984;23;20506;-75
2022/12/25 14:27:27;;;;;;;20.98;6.00;;;8.90;99.90;;;;;;6211815;23;20009;-75
2022/12/25 14:29:55;;;;;;;17.67;6.32;;;8.90;99.90;;;;;;6183829;23;20036;-76
2022/12/25 14:32:24;;;;;;;15.45;6.35;;;8.90;99.90;;;;;;6211230;23;20001;-76
2022/12/25 14:34:54;;;;;;;17.63;5.95;;;8.90;99.90;;;;;;6205156;23;20008;-75
2022/12/25 14:37:24;;;;;;;12.65;6.43;;;8.80;99.90;;;;;;6183315;23;20019;-75
2022/12/25 14:40:05;;;;;;;17.05;6.68;;;8.80;99.90;;;;;;6209785;23;20008;-77
2022/12/25 14:42:33;;;;;;;13.98;6.45;;;8.80;99.90;;;;;;6183421;23;20005;-76
2022/12/25 14:45:02;;;;;;;12.07;5.50;;;8.80;99.90;;;;;;6175617;23;20312;-77